Terminal Aerodrome Forecast
Issued by NWS

Home | Current Version | Previous Version | Text Only | Print | Product List | Glossary On
Versions: 1 2 3 4 5 6 7 8 9 10 11 12 13
000
FTUS46 KSTO 221700
TAFRBL
TAF
KRBL 221731Z 2218/2318 VRB05KT P6SM VCSH BKN200
     FM222100 16012G20KT P6SM BKN150
     FM230400 16008KT P6SM SCT200=

USA.gov is the U.S. government's official web portal to all federal, state and local government web resources and services.